sensor_id;sensor_type;location;lat;lon;timestamp;P1;durP1;ratioP1;P2;durP2;ratioP2
15818;SDS011;8010;53.986;12.106;2024-01-07T00:01:29;1.60;;;1.10;;
15818;SDS011;8010;53.986;12.106;2024-01-07T00:03:54;1.13;;;1.00;;
15818;SDS011;8010;53.986;12.106;2024-01-07T00:06:20;1.23;;;1.00;;
15818;SDS011;8010;53.986;12.106;2024-01-07T00:08:45;2.83;;;1.50;;
15818;SDS011;8010;53.986;12.106;2024-01-07T00:11:12;2.70;;;1.20;;
15818;SDS011;8010;53.986;12.106;2024-01-07T00:13:38;1.40;;;1.10;;
15818;SDS011;8010;53.986;12.106;2024-01-07T00:16:03;2.57;;;1.30;;
15818;SDS011;8010;53.986;12.106;2024-01-07T00:18:29;2.73;;;1.10;;
15818;SDS011;8010;53.986;12.106;2024-01-07T00:20:54;3.10;;;1.30;;
15818;SDS011;8010;53.986;12.106;2024-01-07T00:23:20;1.70;;;1.30;;
15818;SDS011;8010;53.986;12.106;2024-01-07T00:25:48;3.30;;;1.30;;
15818;SDS011;8010;53.986;12.106;2024-01-07T00:28:14;1.37;;;1.00;;
15818;SDS011;8010;53.986;12.106;2024-01-07T00:30:39;2.10;;;1.20;;
15818;SDS011;8010;53.986;12.106;2024-01-07T00:33:05;2.90;;;1.10;;
15818;SDS011;8010;53.986;12.106;2024-01-07T00:35:30;1.47;;;0.77;;
15818;SDS011;8010;53.986;12.106;2024-01-07T00:37:56;2.20;;;1.20;;
15818;SDS011;8010;53.986;12.106;2024-01-07T00:40:24;1.70;;;1.20;;
15818;SDS011;8010;53.986;12.106;2024-01-07T00:42:51;2.27;;;1.27;;
15818;SDS011;8010;53.986;12.106;2024-01-07T00:45:17;1.70;;;1.23;;
15818;SDS011;8010;53.986;12.106;2024-01-07T00:47:43;2.23;;;0.93;;
15818;SDS011;8010;53.986;12.106;2024-01-07T00:50:09;1.93;;;1.10;;
15818;SDS011;8010;53.986;12.106;2024-01-07T00:52:35;2.93;;;1.10;;
15818;SDS011;8010;53.986;12.106;2024-01-07T00:55:04;1.70;;;1.00;;
15818;SDS011;8010;53.986;12.106;2024-01-07T00:57:31;2.43;;;1.27;;
15818;SDS011;8010;53.986;12.106;2024-01-07T00:59:57;1.97;;;1.00;;
15818;SDS011;8010;53.986;12.106;2024-01-07T01:02:22;2.03;;;1.20;;
15818;SDS011;8010;53.986;12.106;2024-01-07T01:04:48;2.03;;;1.03;;
15818;SDS011;8010;53.986;12.106;2024-01-07T01:07:14;1.77;;;0.93;;
15818;SDS011;8010;53.986;12.106;2024-01-07T01:09:39;2.77;;;0.80;;
15818;SDS011;8010;53.986;12.106;2024-01-07T01:12:05;3.63;;;1.10;;
15818;SDS011;8010;53.986;12.106;2024-01-07T01:14:30;1.70;;;1.17;;
15818;SDS011;8010;53.986;12.106;2024-01-07T01:16:56;1.67;;;0.77;;
15818;SDS011;8010;53.986;12.106;2024-01-07T01:19:21;3.23;;;0.93;;
15818;SDS011;8010;53.986;12.106;2024-01-07T01:21:47;1.27;;;1.00;;
15818;SDS011;8010;53.986;12.106;2024-01-07T01:24:12;3.50;;;1.30;;
15818;SDS011;8010;53.986;12.106;2024-01-07T01:26:38;2.97;;;1.13;;
15818;SDS011;8010;53.986;12.106;2024-01-07T01:29:04;2.40;;;1.00;;
15818;SDS011;8010;53.986;12.106;2024-01-07T01:31:30;1.67;;;1.03;;
15818;SDS011;8010;53.986;12.106;2024-01-07T01:33:55;1.80;;;1.30;;
15818;SDS011;8010;53.986;12.106;2024-01-07T01:36:21;1.40;;;1.00;;
15818;SDS011;8010;53.986;12.106;2024-01-07T01:38:46;5.23;;;0.90;;
15818;SDS011;8010;53.986;12.106;2024-01-07T01:41:13;1.80;;;1.20;;
15818;SDS011;8010;53.986;12.106;2024-01-07T01:43:39;2.10;;;0.97;;
15818;SDS011;8010;53.986;12.106;2024-01-07T01:46:04;2.70;;;1.27;;
15818;SDS011;8010;53.986;12.106;2024-01-07T01:48:30;1.57;;;1.03;;
15818;SDS011;8010;53.986;12.106;2024-01-07T01:50:55;1.63;;;0.80;;
15818;SDS011;8010;53.986;12.106;2024-01-07T01:53:22;2.20;;;1.23;;
15818;SDS011;8010;53.986;12.106;2024-01-07T01:55:50;4.77;;;1.23;;
15818;SDS011;8010;53.986;12.106;2024-01-07T01:58:15;2.20;;;1.10;;
15818;SDS011;8010;53.986;12.106;2024-01-07T02:00:44;2.43;;;1.40;;
15818;SDS011;8010;53.986;12.106;2024-01-07T02:03:10;1.67;;;1.10;;
15818;SDS011;8010;53.986;12.106;2024-01-07T02:05:35;1.60;;;1.00;;
15818;SDS011;8010;53.986;12.106;2024-01-07T02:08:01;2.97;;;1.40;;
15818;SDS011;8010;53.986;12.106;2024-01-07T02:10:26;2.10;;;1.10;;
15818;SDS011;8010;53.986;12.106;2024-01-07T02:12:54;2.17;;;1.43;;
15818;SDS011;8010;53.986;12.106;2024-01-07T02:15:19;2.23;;;1.07;;
15818;SDS011;8010;53.986;12.106;2024-01-07T02:17:45;1.77;;;1.30;;
15818;SDS011;8010;53.986;12.106;2024-01-07T02:20:10;1.93;;;1.17;;
15818;SDS011;8010;53.986;12.106;2024-01-07T02:22:36;3.30;;;1.03;;
15818;SDS011;8010;53.986;12.106;2024-01-07T02:25:01;2.90;;;1.23;;
15818;SDS011;8010;53.986;12.106;2024-01-07T02:27:27;3.90;;;1.23;;
15818;SDS011;8010;53.986;12.106;2024-01-07T02:29:52;2.23;;;1.20;;
15818;SDS011;8010;53.986;12.106;2024-01-07T02:32:18;3.20;;;1.20;;
15818;SDS011;8010;53.986;12.106;2024-01-07T02:34:43;1.53;;;1.00;;
15818;SDS011;8010;53.986;12.106;2024-01-07T02:37:09;2.83;;;1.10;;
15818;SDS011;8010;53.986;12.106;2024-01-07T02:39:34;3.10;;;1.00;;
15818;SDS011;8010;53.986;12.106;2024-01-07T02:42:01;1.43;;;1.00;;
15818;SDS011;8010;53.986;12.106;2024-01-07T02:44:26;1.07;;;0.90;;
15818;SDS011;8010;53.986;12.106;2024-01-07T02:46:52;1.37;;;1.00;;
15818;SDS011;8010;53.986;12.106;2024-01-07T02:49:17;2.23;;;1.30;;
15818;SDS011;8010;53.986;12.106;2024-01-07T02:51:43;1.37;;;1.10;;
15818;SDS011;8010;53.986;12.106;2024-01-07T02:54:10;1.50;;;1.10;;
15818;SDS011;8010;53.986;12.106;2024-01-07T02:56:36;0.90;;;0.80;;
15818;SDS011;8010;53.986;12.106;2024-01-07T02:59:01;2.00;;;0.70;;
15818;SDS011;8010;53.986;12.106;2024-01-07T03:01:27;1.33;;;0.60;;
15818;SDS011;8010;53.986;12.106;2024-01-07T03:03:52;1.07;;;0.80;;
15818;SDS011;8010;53.986;12.106;2024-01-07T03:06:18;1.23;;;0.80;;
15818;SDS011;8010;53.986;12.106;2024-01-07T03:08:43;0.70;;;0.60;;
15818;SDS011;8010;53.986;12.106;2024-01-07T03:11:09;0.90;;;0.40;;
15818;SDS011;8010;53.986;12.106;2024-01-07T03:13:34;1.43;;;0.70;;
15818;SDS011;8010;53.986;12.106;2024-01-07T03:16:00;0.80;;;0.50;;
15818;SDS011;8010;53.986;12.106;2024-01-07T03:18:26;1.37;;;0.53;;
15818;SDS011;8010;53.986;12.106;2024-01-07T03:20:53;0.77;;;0.50;;
15818;SDS011;8010;53.986;12.106;2024-01-07T03:23:18;0.70;;;0.57;;
15818;SDS011;8010;53.986;12.106;2024-01-07T03:25:44;1.10;;;0.80;;
15818;SDS011;8010;53.986;12.106;2024-01-07T03:28:09;1.17;;;0.67;;
15818;SDS011;8010;53.986;12.106;2024-01-07T03:30:35;0.70;;;0.50;;
15818;SDS011;8010;53.986;12.106;2024-01-07T03:33:02;0.67;;;0.43;;
15818;SDS011;8010;53.986;12.106;2024-01-07T03:35:27;1.00;;;0.67;;
15818;SDS011;8010;53.986;12.106;2024-01-07T03:37:53;0.50;;;0.40;;
15818;SDS011;8010;53.986;12.106;2024-01-07T03:40:18;0.60;;;0.50;;
15818;SDS011;8010;53.986;12.106;2024-01-07T03:42:44;1.80;;;0.70;;
15818;SDS011;8010;53.986;12.106;2024-01-07T03:45:09;3.27;;;0.80;;
15818;SDS011;8010;53.986;12.106;2024-01-07T03:47:35;1.43;;;0.70;;
15818;SDS011;8010;53.986;12.106;2024-01-07T03:50:00;0.70;;;0.50;;
15818;SDS011;8010;53.986;12.106;2024-01-07T03:52:26;1.20;;;0.70;;
15818;SDS011;8010;53.986;12.106;2024-01-07T03:54:53;0.73;;;0.50;;
15818;SDS011;8010;53.986;12.106;2024-01-07T03:57:19;1.83;;;0.60;;
15818;SDS011;8010;53.986;12.106;2024-01-07T03:59:44;0.73;;;0.50;;
15818;SDS011;8010;53.986;12.106;2024-01-07T04:02:09;0.90;;;0.60;;
15818;SDS011;8010;53.986;12.106;2024-01-07T04:04:36;0.80;;;0.53;;
15818;SDS011;8010;53.986;12.106;2024-01-07T04:07:02;1.07;;;0.70;;
15818;SDS011;8010;53.986;12.106;2024-01-07T04:09:27;0.40;;;0.40;;
15818;SDS011;8010;53.986;12.106;2024-01-07T04:11:53;1.90;;;0.67;;
15818;SDS011;8010;53.986;12.106;2024-01-07T04:14:18;0.93;;;0.60;;
15818;SDS011;8010;53.986;12.106;2024-01-07T04:16:44;0.60;;;0.50;;
15818;SDS011;8010;53.986;12.106;2024-01-07T04:19:09;2.07;;;0.80;;
15818;SDS011;8010;53.986;12.106;2024-01-07T04:21:35;3.83;;;0.60;;
15818;SDS011;8010;53.986;12.106;2024-01-07T04:24:01;0.80;;;0.70;;
15818;SDS011;8010;53.986;12.106;2024-01-07T04:26:26;2.70;;;0.90;;
15818;SDS011;8010;53.986;12.106;2024-01-07T04:28:52;1.27;;;0.87;;
15818;SDS011;8010;53.986;12.106;2024-01-07T04:31:17;0.90;;;0.60;;
15818;SDS011;8010;53.986;12.106;2024-01-07T04:33:43;0.50;;;0.43;;
15818;SDS011;8010;53.986;12.106;2024-01-07T04:36:08;2.00;;;0.70;;
15818;SDS011;8010;53.986;12.106;2024-01-07T04:38:34;1.40;;;0.60;;
15818;SDS011;8010;53.986;12.106;2024-01-07T04:41:00;0.87;;;0.50;;
15818;SDS011;8010;53.986;12.106;2024-01-07T04:43:25;1.43;;;0.70;;
15818;SDS011;8010;53.986;12.106;2024-01-07T04:45:51;1.00;;;0.50;;
15818;SDS011;8010;53.986;12.106;2024-01-07T04:48:16;0.83;;;0.67;;
15818;SDS011;8010;53.986;12.106;2024-01-07T04:50:42;0.60;;;0.50;;
15818;SDS011;8010;53.986;12.106;2024-01-07T04:53:08;1.43;;;0.60;;
15818;SDS011;8010;53.986;12.106;2024-01-07T04:55:34;0.73;;;0.70;;
15818;SDS011;8010;53.986;12.106;2024-01-07T04:57:59;1.10;;;0.70;;
15818;SDS011;8010;53.986;12.106;2024-01-07T05:00:26;0.63;;;0.40;;
15818;SDS011;8010;53.986;12.106;2024-01-07T05:02:52;2.10;;;0.60;;
15818;SDS011;8010;53.986;12.106;2024-01-07T05:05:17;1.03;;;0.70;;
15818;SDS011;8010;53.986;12.106;2024-01-07T05:07:43;0.80;;;0.60;;
15818;SDS011;8010;53.986;12.106;2024-01-07T05:10:08;1.00;;;0.57;;
15818;SDS011;8010;53.986;12.106;2024-01-07T05:12:34;0.80;;;0.60;;
15818;SDS011;8010;53.986;12.106;2024-01-07T05:14:59;1.27;;;0.80;;
15818;SDS011;8010;53.986;12.106;2024-01-07T05:17:25;1.30;;;0.90;;
15818;SDS011;8010;53.986;12.106;2024-01-07T05:19:50;1.83;;;0.80;;
15818;SDS011;8010;53.986;12.106;2024-01-07T05:22:16;0.80;;;0.70;;
15818;SDS011;8010;53.986;12.106;2024-01-07T05:24:41;1.00;;;0.90;;
15818;SDS011;8010;53.986;12.106;2024-01-07T05:27:08;1.73;;;0.80;;
15818;SDS011;8010;53.986;12.106;2024-01-07T05:29:34;1.33;;;1.00;;
15818;SDS011;8010;53.986;12.106;2024-01-07T05:31:59;3.33;;;1.30;;
15818;SDS011;8010;53.986;12.106;2024-01-07T05:34:27;1.70;;;1.10;;
15818;SDS011;8010;53.986;12.106;2024-01-07T05:36:52;1.60;;;0.90;;
15818;SDS011;8010;53.986;12.106;2024-01-07T05:39:18;1.80;;;1.10;;
15818;SDS011;8010;53.986;12.106;2024-01-07T05:41:44;2.03;;;1.00;;
15818;SDS011;8010;53.986;12.106;2024-01-07T05:44:10;1.57;;;1.20;;
15818;SDS011;8010;53.986;12.106;2024-01-07T05:46:39;1.27;;;1.10;;
15818;SDS011;8010;53.986;12.106;2024-01-07T05:49:05;1.60;;;1.20;;
15818;SDS011;8010;53.986;12.106;2024-01-07T05:51:30;1.93;;;1.00;;
15818;SDS011;8010;53.986;12.106;2024-01-07T05:53:56;4.87;;;2.07;;
15818;SDS011;8010;53.986;12.106;2024-01-07T05:56:22;1.83;;;1.20;;
15818;SDS011;8010;53.986;12.106;2024-01-07T05:58:47;2.80;;;1.00;;
15818;SDS011;8010;53.986;12.106;2024-01-07T06:01:17;1.77;;;1.20;;
15818;SDS011;8010;53.986;12.106;2024-01-07T06:03:44;4.00;;;1.20;;
15818;SDS011;8010;53.986;12.106;2024-01-07T06:06:09;2.63;;;1.40;;
15818;SDS011;8010;53.986;12.106;2024-01-07T06:08:35;2.33;;;1.33;;
15818;SDS011;8010;53.986;12.106;2024-01-07T06:11:00;3.73;;;1.40;;
15818;SDS011;8010;53.986;12.106;2024-01-07T06:13:26;4.47;;;1.40;;
15818;SDS011;8010;53.986;12.106;2024-01-07T06:15:51;3.40;;;1.50;;
15818;SDS011;8010;53.986;12.106;2024-01-07T06:18:17;2.80;;;1.43;;
15818;SDS011;8010;53.986;12.106;2024-01-07T06:20:42;2.73;;;1.50;;
15818;SDS011;8010;53.986;12.106;2024-01-07T06:23:08;3.00;;;1.50;;
15818;SDS011;8010;53.986;12.106;2024-01-07T06:25:33;1.77;;;1.20;;
15818;SDS011;8010;53.986;12.106;2024-01-07T06:27:59;2.37;;;1.50;;
15818;SDS011;8010;53.986;12.106;2024-01-07T06:30:24;2.10;;;1.47;;
15818;SDS011;8010;53.986;12.106;2024-01-07T06:32:50;2.83;;;1.30;;
15818;SDS011;8010;53.986;12.106;2024-01-07T06:35:16;2.63;;;1.20;;
15818;SDS011;8010;53.986;12.106;2024-01-07T06:37:42;4.77;;;1.43;;
15818;SDS011;8010;53.986;12.106;2024-01-07T06:40:07;2.30;;;1.30;;
15818;SDS011;8010;53.986;12.106;2024-01-07T06:42:33;2.77;;;1.30;;
15818;SDS011;8010;53.986;12.106;2024-01-07T06:44:59;1.80;;;1.30;;
15818;SDS011;8010;53.986;12.106;2024-01-07T06:47:24;2.37;;;1.30;;
15818;SDS011;8010;53.986;12.106;2024-01-07T06:49:50;3.60;;;1.47;;
15818;SDS011;8010;53.986;12.106;2024-01-07T06:52:15;2.53;;;1.50;;
15818;SDS011;8010;53.986;12.106;2024-01-07T06:54:41;2.17;;;1.30;;
15818;SDS011;8010;53.986;12.106;2024-01-07T06:57:06;1.80;;;1.30;;
15818;SDS011;8010;53.986;12.106;2024-01-07T06:59:32;1.30;;;1.07;;
15818;SDS011;8010;53.986;12.106;2024-01-07T07:01:57;2.57;;;2.03;;
15818;SDS011;8010;53.986;12.106;2024-01-07T07:04:23;2.20;;;1.50;;
15818;SDS011;8010;53.986;12.106;2024-01-07T07:06:48;4.23;;;1.57;;
15818;SDS011;8010;53.986;12.106;2024-01-07T07:09:14;2.23;;;1.40;;
15818;SDS011;8010;53.986;12.106;2024-01-07T07:11:40;2.60;;;1.40;;
15818;SDS011;8010;53.986;12.106;2024-01-07T07:14:05;4.50;;;1.30;;
15818;SDS011;8010;53.986;12.106;2024-01-07T07:16:31;1.97;;;1.23;;
15818;SDS011;8010;53.986;12.106;2024-01-07T07:18:57;2.17;;;1.00;;
15818;SDS011;8010;53.986;12.106;2024-01-07T07:21:22;2.00;;;1.20;;
15818;SDS011;8010;53.986;12.106;2024-01-07T07:23:48;2.43;;;1.20;;
15818;SDS011;8010;53.986;12.106;2024-01-07T07:26:14;2.37;;;1.37;;
15818;SDS011;8010;53.986;12.106;2024-01-07T07:28:39;1.07;;;0.97;;
15818;SDS011;8010;53.986;12.106;2024-01-07T07:31:05;1.27;;;1.13;;
15818;SDS011;8010;53.986;12.106;2024-01-07T07:33:30;2.10;;;1.23;;
15818;SDS011;8010;53.986;12.106;2024-01-07T07:35:56;2.47;;;1.20;;
15818;SDS011;8010;53.986;12.106;2024-01-07T07:38:21;2.63;;;1.23;;
15818;SDS011;8010;53.986;12.106;2024-01-07T07:40:47;1.80;;;1.10;;
15818;SDS011;8010;53.986;12.106;2024-01-07T07:43:18;2.83;;;1.27;;
15818;SDS011;8010;53.986;12.106;2024-01-07T07:45:44;1.70;;;0.90;;
15818;SDS011;8010;53.986;12.106;2024-01-07T07:48:09;2.07;;;1.10;;
15818;SDS011;8010;53.986;12.106;2024-01-07T07:50:35;1.70;;;1.27;;
15818;SDS011;8010;53.986;12.106;2024-01-07T07:53:00;4.53;;;1.20;;
15818;SDS011;8010;53.986;12.106;2024-01-07T07:55:26;2.30;;;1.30;;
15818;SDS011;8010;53.986;12.106;2024-01-07T07:57:52;3.63;;;1.37;;
15818;SDS011;8010;53.986;12.106;2024-01-07T08:00:17;3.80;;;1.70;;
15818;SDS011;8010;53.986;12.106;2024-01-07T08:02:43;1.80;;;1.53;;
15818;SDS011;8010;53.986;12.106;2024-01-07T08:05:09;5.13;;;1.20;;
15818;SDS011;8010;53.986;12.106;2024-01-07T08:07:34;1.43;;;1.23;;
15818;SDS011;8010;53.986;12.106;2024-01-07T08:10:00;5.57;;;1.70;;
15818;SDS011;8010;53.986;12.106;2024-01-07T08:12:25;1.93;;;1.70;;
15818;SDS011;8010;53.986;12.106;2024-01-07T08:14:51;3.67;;;1.40;;
15818;SDS011;8010;53.986;12.106;2024-01-07T08:17:16;1.37;;;1.27;;
15818;SDS011;8010;53.986;12.106;2024-01-07T08:19:42;2.03;;;1.27;;
15818;SDS011;8010;53.986;12.106;2024-01-07T08:22:07;2.13;;;1.37;;
15818;SDS011;8010;53.986;12.106;2024-01-07T08:24:34;3.23;;;1.43;;
15818;SDS011;8010;53.986;12.106;2024-01-07T08:27:00;2.20;;;1.10;;
15818;SDS011;8010;53.986;12.106;2024-01-07T08:29:26;1.67;;;1.13;;
15818;SDS011;8010;53.986;12.106;2024-01-07T08:31:52;4.03;;;1.73;;
15818;SDS011;8010;53.986;12.106;2024-01-07T08:34:17;2.50;;;1.40;;
15818;SDS011;8010;53.986;12.106;2024-01-07T08:36:43;2.20;;;1.30;;
15818;SDS011;8010;53.986;12.106;2024-01-07T08:39:08;2.83;;;1.27;;
15818;SDS011;8010;53.986;12.106;2024-01-07T08:41:34;2.10;;;1.10;;
15818;SDS011;8010;53.986;12.106;2024-01-07T08:43:59;2.23;;;1.40;;
15818;SDS011;8010;53.986;12.106;2024-01-07T08:46:25;2.33;;;1.20;;
15818;SDS011;8010;53.986;12.106;2024-01-07T08:48:51;2.97;;;1.20;;
15818;SDS011;8010;53.986;12.106;2024-01-07T08:51:16;2.50;;;1.30;;
15818;SDS011;8010;53.986;12.106;2024-01-07T08:53:42;2.13;;;1.10;;
15818;SDS011;8010;53.986;12.106;2024-01-07T08:56:07;2.70;;;1.30;;
15818;SDS011;8010;53.986;12.106;2024-01-07T08:58:33;3.37;;;1.43;;
15818;SDS011;8010;53.986;12.106;2024-01-07T09:00:59;2.67;;;1.67;;
15818;SDS011;8010;53.986;12.106;2024-01-07T09:03:24;2.03;;;1.13;;
15818;SDS011;8010;53.986;12.106;2024-01-07T09:05:50;1.70;;;1.27;;
15818;SDS011;8010;53.986;12.106;2024-01-07T09:08:15;3.80;;;1.60;;
15818;SDS011;8010;53.986;12.106;2024-01-07T09:10:41;3.53;;;1.40;;
15818;SDS011;8010;53.986;12.106;2024-01-07T09:13:07;3.17;;;1.17;;
15818;SDS011;8010;53.986;12.106;2024-01-07T09:15:32;3.83;;;1.20;;
15818;SDS011;8010;53.986;12.106;2024-01-07T09:17:58;4.00;;;1.30;;
15818;SDS011;8010;53.986;12.106;2024-01-07T09:20:23;1.57;;;1.17;;
15818;SDS011;8010;53.986;12.106;2024-01-07T09:22:49;3.03;;;1.07;;
15818;SDS011;8010;53.986;12.106;2024-01-07T09:25:14;2.33;;;1.13;;
15818;SDS011;8010;53.986;12.106;2024-01-07T09:27:40;1.97;;;1.63;;
15818;SDS011;8010;53.986;12.106;2024-01-07T09:30:05;2.57;;;1.20;;
15818;SDS011;8010;53.986;12.106;2024-01-07T09:32:31;1.57;;;1.10;;
15818;SDS011;8010;53.986;12.106;2024-01-07T09:34:57;1.83;;;1.13;;
15818;SDS011;8010;53.986;12.106;2024-01-07T09:37:23;4.00;;;0.80;;
15818;SDS011;8010;53.986;12.106;2024-01-07T09:39:48;1.80;;;1.07;;
15818;SDS011;8010;53.986;12.106;2024-01-07T09:42:17;1.70;;;0.97;;
15818;SDS011;8010;53.986;12.106;2024-01-07T09:44:44;2.63;;;1.20;;
15818;SDS011;8010;53.986;12.106;2024-01-07T09:47:10;2.23;;;1.50;;
15818;SDS011;8010;53.986;12.106;2024-01-07T09:49:37;5.53;;;1.33;;
15818;SDS011;8010;53.986;12.106;2024-01-07T09:52:04;2.17;;;1.70;;
15818;SDS011;8010;53.986;12.106;2024-01-07T09:54:30;3.47;;;1.30;;
15818;SDS011;8010;53.986;12.106;2024-01-07T09:57:00;1.20;;;1.00;;
15818;SDS011;8010;53.986;12.106;2024-01-07T09:59:30;2.00;;;1.00;;
15818;SDS011;8010;53.986;12.106;2024-01-07T10:01:56;1.20;;;0.90;;
15818;SDS011;8010;53.986;12.106;2024-01-07T10:04:22;2.37;;;1.00;;
15818;SDS011;8010;53.986;12.106;2024-01-07T10:06:48;1.37;;;0.70;;
15818;SDS011;8010;53.986;12.106;2024-01-07T10:09:17;2.53;;;1.00;;
15818;SDS011;8010;53.986;12.106;2024-01-07T10:11:45;3.20;;;1.07;;
15818;SDS011;8010;53.986;12.106;2024-01-07T10:14:10;1.50;;;1.20;;
15818;SDS011;8010;53.986;12.106;2024-01-07T10:16:36;1.20;;;1.10;;
15818;SDS011;8010;53.986;12.106;2024-01-07T10:19:02;1.90;;;0.93;;
15818;SDS011;8010;53.986;12.106;2024-01-07T10:21:27;1.53;;;1.10;;
15818;SDS011;8010;53.986;12.106;2024-01-07T10:24:09;3.70;;;1.30;;
15818;SDS011;8010;53.986;12.106;2024-01-07T10:26:36;5.47;;;0.97;;
15818;SDS011;8010;53.986;12.106;2024-01-07T10:29:03;0.97;;;0.80;;
15818;SDS011;8010;53.986;12.106;2024-01-07T10:31:29;1.63;;;1.10;;
15818;SDS011;8010;53.986;12.106;2024-01-07T10:33:56;1.43;;;1.10;;
15818;SDS011;8010;53.986;12.106;2024-01-07T10:36:22;2.47;;;1.10;;
15818;SDS011;8010;53.986;12.106;2024-01-07T10:38:49;2.23;;;1.20;;
15818;SDS011;8010;53.986;12.106;2024-01-07T10:41:15;1.20;;;0.83;;
15818;SDS011;8010;53.986;12.106;2024-01-07T10:43:44;1.47;;;0.93;;
15818;SDS011;8010;53.986;12.106;2024-01-07T10:46:11;1.40;;;1.00;;
15818;SDS011;8010;53.986;12.106;2024-01-07T10:48:39;1.67;;;0.77;;
15818;SDS011;8010;53.986;12.106;2024-01-07T10:51:24;1.33;;;1.00;;
15818;SDS011;8010;53.986;12.106;2024-01-07T10:53:52;1.70;;;1.10;;
15818;SDS011;8010;53.986;12.106;2024-01-07T10:56:20;2.03;;;1.20;;
15818;SDS011;8010;53.986;12.106;2024-01-07T10:58:49;3.80;;;1.30;;
15818;SDS011;8010;53.986;12.106;2024-01-07T11:01:17;2.73;;;1.07;;
15818;SDS011;8010;53.986;12.106;2024-01-07T11:03:47;2.07;;;1.27;;
15818;SDS011;8010;53.986;12.106;2024-01-07T11:06:29;1.03;;;0.73;;
15818;SDS011;8010;53.986;12.106;2024-01-07T11:09:27;2.30;;;0.90;;
15818;SDS011;8010;53.986;12.106;2024-01-07T11:11:58;1.03;;;0.60;;
15818;SDS011;8010;53.986;12.106;2024-01-07T11:14:34;1.00;;;0.73;;
15818;SDS011;8010;53.986;12.106;2024-01-07T11:17:04;0.83;;;0.60;;
15818;SDS011;8010;53.986;12.106;2024-01-07T11:19:33;0.90;;;0.70;;
15818;SDS011;8010;53.986;12.106;2024-01-07T11:24:48;1.67;;;0.97;;
15818;SDS011;8010;53.986;12.106;2024-01-07T11:27:15;1.93;;;0.80;;
15818;SDS011;8010;53.986;12.106;2024-01-07T11:29:41;0.93;;;0.70;;
15818;SDS011;8010;53.986;12.106;2024-01-07T11:32:06;1.13;;;0.80;;
15818;SDS011;8010;53.986;12.106;2024-01-07T11:34:42;3.30;;;0.87;;
15818;SDS011;8010;53.986;12.106;2024-01-07T11:37:11;0.83;;;0.70;;
15818;SDS011;8010;53.986;12.106;2024-01-07T11:39:38;1.47;;;0.87;;
15818;SDS011;8010;53.986;12.106;2024-01-07T11:42:06;2.70;;;0.90;;
15818;SDS011;8010;53.986;12.106;2024-01-07T11:44:35;1.23;;;0.67;;
15818;SDS011;8010;53.986;12.106;2024-01-07T11:47:03;1.27;;;1.03;;
15818;SDS011;8010;53.986;12.106;2024-01-07T11:49:32;0.90;;;0.77;;
15818;SDS011;8010;53.986;12.106;2024-01-07T11:51:58;0.50;;;0.50;;
15818;SDS011;8010;53.986;12.106;2024-01-07T11:54:24;1.87;;;0.70;;
15818;SDS011;8010;53.986;12.106;2024-01-07T11:56:50;0.63;;;0.53;;
15818;SDS011;8010;53.986;12.106;2024-01-07T11:59:15;1.87;;;0.90;;
15818;SDS011;8010;53.986;12.106;2024-01-07T12:01:41;0.83;;;0.70;;
15818;SDS011;8010;53.986;12.106;2024-01-07T12:04:07;1.07;;;0.60;;
15818;SDS011;8010;53.986;12.106;2024-01-07T12:06:34;1.53;;;0.87;;
15818;SDS011;8010;53.986;12.106;2024-01-07T12:09:00;1.07;;;0.43;;
15818;SDS011;8010;53.986;12.106;2024-01-07T12:11:25;0.90;;;0.67;;
15818;SDS011;8010;53.986;12.106;2024-01-07T12:13:51;1.40;;;0.70;;
15818;SDS011;8010;53.986;12.106;2024-01-07T12:16:17;0.77;;;0.63;;
15818;SDS011;8010;53.986;12.106;2024-01-07T12:18:42;1.90;;;0.60;;
15818;SDS011;8010;53.986;12.106;2024-01-07T12:21:08;1.30;;;0.70;;
15818;SDS011;8010;53.986;12.106;2024-01-07T12:23:37;1.73;;;1.00;;
15818;SDS011;8010;53.986;12.106;2024-01-07T12:26:09;0.77;;;0.60;;
15818;SDS011;8010;53.986;12.106;2024-01-07T12:28:36;1.17;;;0.83;;
15818;SDS011;8010;53.986;12.106;2024-01-07T12:31:02;1.03;;;0.67;;
15818;SDS011;8010;53.986;12.106;2024-01-07T12:33:29;1.10;;;0.70;;
15818;SDS011;8010;53.986;12.106;2024-01-07T12:35:56;1.43;;;0.80;;
15818;SDS011;8010;53.986;12.106;2024-01-07T12:38:23;0.80;;;0.60;;
15818;SDS011;8010;53.986;12.106;2024-01-07T12:40:49;1.80;;;0.60;;
15818;SDS011;8010;53.986;12.106;2024-01-07T12:43:15;1.00;;;0.80;;
15818;SDS011;8010;53.986;12.106;2024-01-07T12:45:41;1.60;;;0.80;;
15818;SDS011;8010;53.986;12.106;2024-01-07T12:48:06;2.13;;;0.60;;
15818;SDS011;8010;53.986;12.106;2024-01-07T12:50:32;2.10;;;0.70;;
15818;SDS011;8010;53.986;12.106;2024-01-07T12:52:57;0.90;;;0.70;;
15818;SDS011;8010;53.986;12.106;2024-01-07T12:55:24;0.90;;;0.70;;
15818;SDS011;8010;53.986;12.106;2024-01-07T12:57:50;1.10;;;1.00;;
15818;SDS011;8010;53.986;12.106;2024-01-07T13:00:16;1.13;;;0.83;;
15818;SDS011;8010;53.986;12.106;2024-01-07T13:02:42;1.10;;;0.83;;
15818;SDS011;8010;53.986;12.106;2024-01-07T13:05:08;2.83;;;1.00;;
15818;SDS011;8010;53.986;12.106;2024-01-07T13:07:34;1.07;;;0.67;;
15818;SDS011;8010;53.986;12.106;2024-01-07T13:10:00;1.57;;;1.00;;
15818;SDS011;8010;53.986;12.106;2024-01-07T13:12:25;1.50;;;1.00;;
15818;SDS011;8010;53.986;12.106;2024-01-07T13:14:51;1.17;;;0.77;;
15818;SDS011;8010;53.986;12.106;2024-01-07T13:17:17;3.10;;;1.20;;
15818;SDS011;8010;53.986;12.106;2024-01-07T13:19:43;1.20;;;1.03;;
15818;SDS011;8010;53.986;12.106;2024-01-07T13:22:09;1.77;;;1.10;;
15818;SDS011;8010;53.986;12.106;2024-01-07T13:24:35;2.20;;;1.03;;
15818;SDS011;8010;53.986;12.106;2024-01-07T13:27:01;3.50;;;0.90;;
15818;SDS011;8010;53.986;12.106;2024-01-07T13:29:26;1.57;;;1.20;;
15818;SDS011;8010;53.986;12.106;2024-01-07T13:31:52;3.10;;;1.17;;
15818;SDS011;8010;53.986;12.106;2024-01-07T13:34:17;1.40;;;1.10;;
15818;SDS011;8010;53.986;12.106;2024-01-07T13:36:43;2.10;;;1.00;;
15818;SDS011;8010;53.986;12.106;2024-01-07T13:39:09;1.70;;;1.00;;
15818;SDS011;8010;53.986;12.106;2024-01-07T13:41:35;1.60;;;1.07;;
15818;SDS011;8010;53.986;12.106;2024-01-07T13:44:01;2.63;;;1.60;;
15818;SDS011;8010;53.986;12.106;2024-01-07T13:46:30;2.57;;;1.30;;
15818;SDS011;8010;53.986;12.106;2024-01-07T13:48:55;4.37;;;1.30;;
15818;SDS011;8010;53.986;12.106;2024-01-07T13:51:21;2.07;;;1.40;;
15818;SDS011;8010;53.986;12.106;2024-01-07T13:53:46;1.67;;;1.23;;
15818;SDS011;8010;53.986;12.106;2024-01-07T13:56:12;2.63;;;1.40;;
15818;SDS011;8010;53.986;12.106;2024-01-07T13:58:38;2.13;;;1.90;;
15818;SDS011;8010;53.986;12.106;2024-01-07T14:01:03;3.83;;;1.60;;
15818;SDS011;8010;53.986;12.106;2024-01-07T14:03:30;2.23;;;1.50;;
15818;SDS011;8010;53.986;12.106;2024-01-07T14:05:57;2.50;;;1.67;;
15818;SDS011;8010;53.986;12.106;2024-01-07T14:08:23;3.30;;;1.53;;
15818;SDS011;8010;53.986;12.106;2024-01-07T14:10:49;1.70;;;1.47;;
15818;SDS011;8010;53.986;12.106;2024-01-07T14:13:14;2.80;;;1.30;;
15818;SDS011;8010;53.986;12.106;2024-01-07T14:15:40;4.17;;;1.60;;
15818;SDS011;8010;53.986;12.106;2024-01-07T14:18:05;3.33;;;1.40;;
15818;SDS011;8010;53.986;12.106;2024-01-07T14:20:31;2.30;;;1.60;;
15818;SDS011;8010;53.986;12.106;2024-01-07T14:22:57;6.40;;;1.93;;
15818;SDS011;8010;53.986;12.106;2024-01-07T14:25:23;1.10;;;1.00;;
15818;SDS011;8010;53.986;12.106;2024-01-07T14:27:49;1.73;;;1.40;;
15818;SDS011;8010;53.986;12.106;2024-01-07T14:30:14;1.63;;;1.30;;
15818;SDS011;8010;53.986;12.106;2024-01-07T14:32:40;1.83;;;1.43;;
15818;SDS011;8010;53.986;12.106;2024-01-07T14:35:06;1.73;;;1.10;;
15818;SDS011;8010;53.986;12.106;2024-01-07T14:37:32;1.57;;;1.30;;
15818;SDS011;8010;53.986;12.106;2024-01-07T14:39:57;2.33;;;1.20;;
15818;SDS011;8010;53.986;12.106;2024-01-07T14:42:23;1.40;;;1.07;;
15818;SDS011;8010;53.986;12.106;2024-01-07T14:44:48;1.70;;;1.20;;